Glenford, Ohio
Current Conditions -  °F | °C
As of 11:54 PM on Saturday 25 Oct 2014 (Local Time) from KVTA Reporting Station
Clear Clear  
Wind Chill: 57°   Ceiling: Unl
Heat Index: 57°   Visibility: 10mi
Dew Point: 35°   Wind: 6mph
Humidity: 44%   Direction: 310°NW
Pressure: 29.87"   Gusts: NA
Location:  39.89°N, 82.32°W
Report Text: KVTA 260354Z AUTO 31005KT 10SM CLR 14/02 A2987 RMK AO2 SLP114 T01390017
Loading
Personal Weather Stations






























Interactive Weather Map
Tropical Storm Tracking
New forecast layout! Learn more

10-Day Weather Forecast

Advertisements
Track Severe Weather on mobile